sensor_id;sensor_type;location;lat;lon;timestamp;pressure;altitude;pressure_sealevel;temperature;humidity
51297;BME280;37380;45.186;9.792;2022-10-16T00:01:59;101489.94;;;17.70;100.00
51297;BME280;37380;45.186;9.792;2022-10-16T00:05:00;101492.63;;;17.72;100.00
51297;BME280;37380;45.186;9.792;2022-10-16T00:07:37;101495.00;;;17.58;100.00
51297;BME280;37380;45.186;9.792;2022-10-16T00:10:04;101497.69;;;17.61;100.00
51297;BME280;37380;45.186;9.792;2022-10-16T00:12:31;101495.31;;;17.76;100.00
51297;BME280;37380;45.186;9.792;2022-10-16T00:14:58;101491.25;;;17.92;100.00
51297;BME280;37380;45.186;9.792;2022-10-16T00:17:31;101495.88;;;18.05;100.00
51297;BME280;37380;45.186;9.792;2022-10-16T00:20:25;101495.84;;;18.04;100.00
51297;BME280;37380;45.186;9.792;2022-10-16T00:23:11;101504.38;;;17.87;100.00
51297;BME280;37380;45.186;9.792;2022-10-16T00:25:37;101501.56;;;17.78;100.00
51297;BME280;37380;45.186;9.792;2022-10-16T00:28:04;101499.25;;;17.97;100.00
51297;BME280;37380;45.186;9.792;2022-10-16T00:30:31;101497.53;;;17.99;100.00
51297;BME280;37380;45.186;9.792;2022-10-16T00:33:04;101505.66;;;18.11;100.00
51297;BME280;37380;45.186;9.792;2022-10-16T00:36:06;101495.22;;;18.20;100.00
51297;BME280;37380;45.186;9.792;2022-10-16T00:39:06;101496.94;;;18.17;100.00
51297;BME280;37380;45.186;9.792;2022-10-16T00:42:00;101498.25;;;17.92;100.00
51297;BME280;37380;45.186;9.792;2022-10-16T00:44:42;101494.63;;;17.85;100.00
51297;BME280;37380;45.186;9.792;2022-10-16T00:47:17;101505.97;;;17.78;100.00
51297;BME280;37380;45.186;9.792;2022-10-16T00:50:24;101505.84;;;17.73;100.00
51297;BME280;37380;45.186;9.792;2022-10-16T00:53:20;101508.09;;;17.99;100.00
51297;BME280;37380;45.186;9.792;2022-10-16T00:55:48;101500.13;;;17.97;100.00
51297;BME280;37380;45.186;9.792;2022-10-16T00:58:15;101500.56;;;18.22;100.00
51297;BME280;37380;45.186;9.792;2022-10-16T01:00:41;101502.28;;;18.20;100.00
51297;BME280;37380;45.186;9.792;2022-10-16T01:03:49;101494.19;;;18.12;100.00
51297;BME280;37380;45.186;9.792;2022-10-16T01:06:38;101501.16;;;18.04;100.00
51297;BME280;37380;45.186;9.792;2022-10-16T01:09:21;101489.78;;;17.62;100.00
51297;BME280;37380;45.186;9.792;2022-10-16T01:12:10;101491.47;;;17.57;100.00
51297;BME280;37380;45.186;9.792;2022-10-16T01:14:48;101486.91;;;17.96;100.00
51297;BME280;37380;45.186;9.792;2022-10-16T01:20:35;101484.06;;;17.85;100.00
51297;BME280;37380;45.186;9.792;2022-10-16T01:31:12;101496.78;;;17.59;100.00
51297;BME280;37380;45.186;9.792;2022-10-16T01:33:50;101499.47;;;17.60;100.00
51297;BME280;37380;45.186;9.792;2022-10-16T01:36:21;101495.63;;;17.90;100.00
51297;BME280;37380;45.186;9.792;2022-10-16T01:38:49;101500.75;;;17.82;100.00
51297;BME280;37380;45.186;9.792;2022-10-16T01:41:21;101495.13;;;17.64;100.00
51297;BME280;37380;45.186;9.792;2022-10-16T01:43:50;101496.44;;;17.40;100.00
51297;BME280;37380;45.186;9.792;2022-10-16T01:46:20;101491.25;;;17.47;100.00
51297;BME280;37380;45.186;9.792;2022-10-16T01:48:48;101492.31;;;17.55;100.00
51297;BME280;37380;45.186;9.792;2022-10-16T01:51:22;101488.47;;;17.37;100.00
51297;BME280;37380;45.186;9.792;2022-10-16T01:54:25;101483.13;;;17.36;100.00
51297;BME280;37380;45.186;9.792;2022-10-16T01:57:14;101490.28;;;17.41;100.00
51297;BME280;37380;45.186;9.792;2022-10-16T01:59:43;101491.22;;;17.43;100.00
51297;BME280;37380;45.186;9.792;2022-10-16T02:02:17;101491.25;;;17.47;100.00
51297;BME280;37380;45.186;9.792;2022-10-16T02:05:25;101495.16;;;17.67;100.00
51297;BME280;37380;45.186;9.792;2022-10-16T02:08:27;101489.28;;;17.36;100.00
51297;BME280;37380;45.186;9.792;2022-10-16T02:10:57;101494.66;;;17.39;100.00
51297;BME280;37380;45.186;9.792;2022-10-16T02:15:57;101485.63;;;17.28;100.00
51297;BME280;37380;45.186;9.792;2022-10-16T02:18:25;101495.09;;;17.18;100.00
51297;BME280;37380;45.186;9.792;2022-10-16T02:21:26;101480.09;;;17.16;100.00
51297;BME280;37380;45.186;9.792;2022-10-16T02:24:05;101495.38;;;16.88;100.00
51297;BME280;37380;45.186;9.792;2022-10-16T02:26:41;101501.66;;;16.93;100.00
51297;BME280;37380;45.186;9.792;2022-10-16T02:29:10;101501.97;;;17.09;100.00
51297;BME280;37380;45.186;9.792;2022-10-16T02:31:47;101493.41;;;17.20;100.00
51297;BME280;37380;45.186;9.792;2022-10-16T02:34:43;101492.88;;;17.38;100.00
51297;BME280;37380;45.186;9.792;2022-10-16T02:37:11;101501.13;;;17.57;100.00
51297;BME280;37380;45.186;9.792;2022-10-16T02:39:38;101495.00;;;17.59;100.00
51297;BME280;37380;45.186;9.792;2022-10-16T02:42:09;101500.00;;;17.42;100.00
51297;BME280;37380;45.186;9.792;2022-10-16T02:44:36;101501.72;;;17.40;100.00
51297;BME280;37380;45.186;9.792;2022-10-16T02:47:03;101505.31;;;17.44;100.00
51297;BME280;37380;45.186;9.792;2022-10-16T02:49:36;101512.78;;;17.68;100.00
51297;BME280;37380;45.186;9.792;2022-10-16T02:52:31;101509.88;;;17.53;100.00
51297;BME280;37380;45.186;9.792;2022-10-16T02:54:58;101506.94;;;17.37;100.00
51297;BME280;37380;45.186;9.792;2022-10-16T02:57:24;101512.72;;;17.18;100.00
51297;BME280;37380;45.186;9.792;2022-10-16T02:59:58;101515.63;;;16.89;100.00
51297;BME280;37380;45.186;9.792;2022-10-16T03:02:59;101516.34;;;16.82;100.00
51297;BME280;37380;45.186;9.792;2022-10-16T03:06:00;101518.44;;;16.97;100.00
51297;BME280;37380;45.186;9.792;2022-10-16T03:08:49;101518.00;;;17.18;100.00
51297;BME280;37380;45.186;9.792;2022-10-16T03:11:15;101506.00;;;17.35;100.00
51297;BME280;37380;45.186;9.792;2022-10-16T03:13:42;101508.59;;;17.32;100.00
51297;BME280;37380;45.186;9.792;2022-10-16T03:16:09;101517.13;;;17.19;100.00
51297;BME280;37380;45.186;9.792;2022-10-16T03:18:56;101512.59;;;17.12;100.00
51297;BME280;37380;45.186;9.792;2022-10-16T03:21:50;101518.97;;;17.23;100.00
51297;BME280;37380;45.186;9.792;2022-10-16T03:24:45;101516.63;;;17.38;100.00
51297;BME280;37380;45.186;9.792;2022-10-16T03:27:11;101514.13;;;17.45;100.00
51297;BME280;37380;45.186;9.792;2022-10-16T03:29:38;101514.16;;;17.46;100.00
51297;BME280;37380;45.186;9.792;2022-10-16T03:32:05;101525.00;;;17.60;100.00
51297;BME280;37380;45.186;9.792;2022-10-16T03:34:32;101523.09;;;17.53;100.00
51297;BME280;37380;45.186;9.792;2022-10-16T03:36:59;101523.84;;;17.46;100.00
51297;BME280;37380;45.186;9.792;2022-10-16T03:39:26;101531.66;;;17.41;100.00
51297;BME280;37380;45.186;9.792;2022-10-16T03:41:53;101529.91;;;17.41;100.00
51297;BME280;37380;45.186;9.792;2022-10-16T03:44:20;101538.41;;;17.25;100.00
51297;BME280;37380;45.186;9.792;2022-10-16T03:46:48;101535.06;;;17.35;100.00
51297;BME280;37380;45.186;9.792;2022-10-16T03:49:21;101536.59;;;17.24;100.00
51297;BME280;37380;45.186;9.792;2022-10-16T03:52:22;101529.38;;;17.14;100.00
51297;BME280;37380;45.186;9.792;2022-10-16T03:54:52;101544.72;;;16.92;100.00
51297;BME280;37380;45.186;9.792;2022-10-16T03:57:19;101546.59;;;16.98;100.00
51297;BME280;37380;45.186;9.792;2022-10-16T03:59:47;101540.75;;;17.11;100.00
51297;BME280;37380;45.186;9.792;2022-10-16T04:02:20;101544.72;;;16.92;100.00
51297;BME280;37380;45.186;9.792;2022-10-16T04:05:21;101544.66;;;16.89;100.00
51297;BME280;37380;45.186;9.792;2022-10-16T04:08:16;101543.41;;;17.13;100.00
51297;BME280;37380;45.186;9.792;2022-10-16T04:10:43;101541.81;;;17.21;100.00
51297;BME280;37380;45.186;9.792;2022-10-16T04:13:10;101551.38;;;17.14;100.00
51297;BME280;37380;45.186;9.792;2022-10-16T04:15:38;101552.78;;;16.98;100.00
51297;BME280;37380;45.186;9.792;2022-10-16T04:18:05;101564.53;;;17.13;100.00
51297;BME280;37380;45.186;9.792;2022-10-16T04:20:32;101553.00;;;17.09;100.00
51297;BME280;37380;45.186;9.792;2022-10-16T04:22:59;101550.44;;;17.12;100.00
51297;BME280;37380;45.186;9.792;2022-10-16T04:25:26;101562.81;;;17.15;100.00
51297;BME280;37380;45.186;9.792;2022-10-16T04:27:53;101558.41;;;17.14;100.00
51297;BME280;37380;45.186;9.792;2022-10-16T04:30:21;101566.56;;;16.85;100.00
51297;BME280;37380;45.186;9.792;2022-10-16T04:32:48;101567.16;;;16.75;100.00
51297;BME280;37380;45.186;9.792;2022-10-16T04:35:17;101572.72;;;16.84;100.00
51297;BME280;37380;45.186;9.792;2022-10-16T04:37:44;101579.28;;;17.03;100.00
51297;BME280;37380;45.186;9.792;2022-10-16T04:40:11;101581.25;;;17.12;100.00
51297;BME280;37380;45.186;9.792;2022-10-16T04:42:37;101573.63;;;17.27;100.00
51297;BME280;37380;45.186;9.792;2022-10-16T04:45:05;101569.53;;;17.41;100.00
51297;BME280;37380;45.186;9.792;2022-10-16T04:47:32;101578.53;;;17.09;100.00
51297;BME280;37380;45.186;9.792;2022-10-16T04:50:06;101582.03;;;17.08;100.00
51297;BME280;37380;45.186;9.792;2022-10-16T04:53:18;101583.75;;;17.06;100.00
51297;BME280;37380;45.186;9.792;2022-10-16T04:56:13;101584.81;;;17.14;100.00
51297;BME280;37380;45.186;9.792;2022-10-16T04:58:41;101581.53;;;17.26;100.00
51297;BME280;37380;45.186;9.792;2022-10-16T05:01:14;101586.06;;;17.31;100.00
51297;BME280;37380;45.186;9.792;2022-10-16T05:04:15;101586.13;;;16.95;100.00
51297;BME280;37380;45.186;9.792;2022-10-16T05:07:10;101585.78;;;16.80;100.00
51297;BME280;37380;45.186;9.792;2022-10-16T05:09:36;101589.31;;;16.80;100.00
51297;BME280;37380;45.186;9.792;2022-10-16T05:12:03;101586.00;;;16.89;100.00
51297;BME280;37380;45.186;9.792;2022-10-16T05:14:30;101589.09;;;17.09;100.00
51297;BME280;37380;45.186;9.792;2022-10-16T05:16:57;101578.84;;;17.23;100.00
51297;BME280;37380;45.186;9.792;2022-10-16T05:19:25;101577.97;;;17.24;100.00
51297;BME280;37380;45.186;9.792;2022-10-16T05:21:54;101587.19;;;17.02;100.00
51297;BME280;37380;45.186;9.792;2022-10-16T05:24:21;101594.31;;;17.06;100.00
51297;BME280;37380;45.186;9.792;2022-10-16T05:26:49;101593.91;;;16.87;100.00
51297;BME280;37380;45.186;9.792;2022-10-16T05:29:16;101591.25;;;16.87;100.00
51297;BME280;37380;45.186;9.792;2022-10-16T05:31:43;101590.47;;;16.91;100.00
51297;BME280;37380;45.186;9.792;2022-10-16T05:34:17;101598.66;;;17.04;100.00
51297;BME280;37380;45.186;9.792;2022-10-16T05:37:12;101597.91;;;17.09;100.00
51297;BME280;37380;45.186;9.792;2022-10-16T05:39:39;101600.22;;;16.94;100.00
51297;BME280;37380;45.186;9.792;2022-10-16T05:42:06;101600.75;;;16.79;100.00
51297;BME280;37380;45.186;9.792;2022-10-16T05:44:33;101600.97;;;16.88;100.00
51297;BME280;37380;45.186;9.792;2022-10-16T05:47:06;101606.78;;;17.13;100.00
51297;BME280;37380;45.186;9.792;2022-10-16T05:50:08;101603.50;;;17.25;100.00
51297;BME280;37380;45.186;9.792;2022-10-16T05:53:02;101610.81;;;17.36;100.00
51297;BME280;37380;45.186;9.792;2022-10-16T05:55:29;101609.16;;;17.41;100.00
51297;BME280;37380;45.186;9.792;2022-10-16T05:57:55;101620.59;;;17.40;100.00
51297;BME280;37380;45.186;9.792;2022-10-16T06:00:22;101623.88;;;17.29;100.00
51297;BME280;37380;45.186;9.792;2022-10-16T06:02:55;101623.38;;;17.07;100.00
51297;BME280;37380;45.186;9.792;2022-10-16T06:05:50;101636.91;;;17.21;100.00
51297;BME280;37380;45.186;9.792;2022-10-16T06:08:17;101634.56;;;17.35;100.00
51297;BME280;37380;45.186;9.792;2022-10-16T06:10:45;101637.22;;;17.36;100.00
51297;BME280;37380;45.186;9.792;2022-10-16T06:13:12;101638.69;;;17.22;100.00
51297;BME280;37380;45.186;9.792;2022-10-16T06:15:41;101647.47;;;17.21;100.00
51297;BME280;37380;45.186;9.792;2022-10-16T06:18:10;101653.31;;;17.46;100.00
51297;BME280;37380;45.186;9.792;2022-10-16T06:20:37;101653.44;;;17.53;100.00
51297;BME280;37380;45.186;9.792;2022-10-16T06:23:05;101658.59;;;17.46;100.00
51297;BME280;37380;45.186;9.792;2022-10-16T06:25:31;101661.22;;;17.46;100.00
51297;BME280;37380;45.186;9.792;2022-10-16T06:27:58;101667.59;;;17.57;100.00
51297;BME280;37380;45.186;9.792;2022-10-16T06:30:25;101676.88;;;17.77;100.00
51297;BME280;37380;45.186;9.792;2022-10-16T06:32:52;101672.66;;;17.85;100.00
51297;BME280;37380;45.186;9.792;2022-10-16T06:35:31;101668.91;;;17.76;100.00
51297;BME280;37380;45.186;9.792;2022-10-16T06:38:32;101673.47;;;17.81;100.00
51297;BME280;37380;45.186;9.792;2022-10-16T06:41:26;101668.34;;;17.91;100.00
51297;BME280;37380;45.186;9.792;2022-10-16T06:43:53;101683.22;;;17.84;100.00
51297;BME280;37380;45.186;9.792;2022-10-16T06:46:21;101696.22;;;17.75;100.00
51297;BME280;37380;45.186;9.792;2022-10-16T06:48:48;101701.00;;;17.52;100.00
51297;BME280;37380;45.186;9.792;2022-10-16T06:51:22;101700.13;;;17.53;100.00
51297;BME280;37380;45.186;9.792;2022-10-16T06:54:22;101697.81;;;17.68;100.00
51297;BME280;37380;45.186;9.792;2022-10-16T06:56:48;101702.56;;;17.83;100.00
51297;BME280;37380;45.186;9.792;2022-10-16T06:59:17;101708.34;;;18.07;100.00
51297;BME280;37380;45.186;9.792;2022-10-16T07:01:51;101716.19;;;18.03;100.00
51297;BME280;37380;45.186;9.792;2022-10-16T07:04:52;101715.16;;;17.57;100.00
51297;BME280;37380;45.186;9.792;2022-10-16T07:07:53;101725.16;;;17.69;100.00
51297;BME280;37380;45.186;9.792;2022-10-16T07:10:46;101722.66;;;17.76;100.00
51297;BME280;37380;45.186;9.792;2022-10-16T07:13:13;101727.47;;;17.55;100.00
51297;BME280;37380;45.186;9.792;2022-10-16T07:15:40;101731.28;;;17.30;100.00
51297;BME280;37380;45.186;9.792;2022-10-16T07:18:07;101735.94;;;17.40;100.00
51297;BME280;37380;45.186;9.792;2022-10-16T07:20:34;101735.03;;;17.38;100.00
51297;BME280;37380;45.186;9.792;2022-10-16T07:23:01;101735.97;;;17.41;100.00
51297;BME280;37380;45.186;9.792;2022-10-16T07:25:28;101748.09;;;17.33;100.00
51297;BME280;37380;45.186;9.792;2022-10-16T07:27:55;101748.56;;;17.52;100.00
51297;BME280;37380;45.186;9.792;2022-10-16T07:30:23;101747.75;;;17.56;100.00
51297;BME280;37380;45.186;9.792;2022-10-16T07:32:50;101743.13;;;17.83;100.00
51297;BME280;37380;45.186;9.792;2022-10-16T07:35:23;101752.03;;;18.31;100.00
51297;BME280;37380;45.186;9.792;2022-10-16T07:38:24;101761.31;;;18.10;100.00
51297;BME280;37380;45.186;9.792;2022-10-16T07:41:19;101758.19;;;18.31;100.00
51297;BME280;37380;45.186;9.792;2022-10-16T07:43:49;101765.84;;;19.10;100.00
51297;BME280;37380;45.186;9.792;2022-10-16T07:46:17;101764.13;;;19.68;100.00
51297;BME280;37380;45.186;9.792;2022-10-16T07:48:44;101769.06;;;20.09;100.00
51297;BME280;37380;45.186;9.792;2022-10-16T07:51:19;101763.06;;;19.60;100.00
51297;BME280;37380;45.186;9.792;2022-10-16T07:54:14;101763.69;;;20.03;100.00
51297;BME280;37380;45.186;9.792;2022-10-16T07:56:41;101771.19;;;20.38;100.00
51297;BME280;37380;45.186;9.792;2022-10-16T07:59:09;101771.97;;;20.28;100.00
51297;BME280;37380;45.186;9.792;2022-10-16T08:01:43;101774.72;;;20.37;100.00
51297;BME280;37380;45.186;9.792;2022-10-16T08:04:46;101775.53;;;20.31;100.00
51297;BME280;37380;45.186;9.792;2022-10-16T08:07:40;101779.28;;;20.49;100.00
51297;BME280;37380;45.186;9.792;2022-10-16T08:10:41;101771.31;;;20.50;100.00
51297;BME280;37380;45.186;9.792;2022-10-16T08:13:35;101772.66;;;20.94;100.00
51297;BME280;37380;45.186;9.792;2022-10-16T08:16:02;101774.66;;;21.15;100.00
51297;BME280;37380;45.186;9.792;2022-10-16T08:18:34;101772.25;;;20.52;100.00
51297;BME280;37380;45.186;9.792;2022-10-16T08:21:02;101776.84;;;20.66;100.00
51297;BME280;37380;45.186;9.792;2022-10-16T08:23:30;101773.88;;;21.31;100.00
51297;BME280;37380;45.186;9.792;2022-10-16T08:26:01;101778.44;;;21.46;100.00
51297;BME280;37380;45.186;9.792;2022-10-16T08:28:29;101776.53;;;21.30;100.00
51297;BME280;37380;45.186;9.792;2022-10-16T08:30:56;101773.53;;;20.91;100.00
51297;BME280;37380;45.186;9.792;2022-10-16T08:33:25;101781.97;;;21.46;100.00
51297;BME280;37380;45.186;9.792;2022-10-16T08:35:52;101780.97;;;21.32;100.00
51297;BME280;37380;45.186;9.792;2022-10-16T08:38:27;101779.13;;;21.22;100.00
51297;BME280;37380;45.186;9.792;2022-10-16T08:47:23;101790.91;;;21.53;100.00
51297;BME280;37380;45.186;9.792;2022-10-16T08:49:59;101789.25;;;21.72;100.00
51297;BME280;37380;45.186;9.792;2022-10-16T08:52:54;101790.25;;;21.99;100.00
51297;BME280;37380;45.186;9.792;2022-10-16T08:55:45;101786.09;;;22.62;100.00
51297;BME280;37380;45.186;9.792;2022-10-16T08:58:14;101787.03;;;22.93;100.00
51297;BME280;37380;45.186;9.792;2022-10-16T09:00:41;101786.16;;;22.93;100.00
51297;BME280;37380;45.186;9.792;2022-10-16T09:19:43;101799.03;;;21.73;100.00
51297;BME280;37380;45.186;9.792;2022-10-16T09:22:15;101797.34;;;21.92;100.00
51297;BME280;37380;45.186;9.792;2022-10-16T09:24:42;101799.00;;;21.70;100.00
51297;BME280;37380;45.186;9.792;2022-10-16T09:27:13;101804.44;;;21.88;100.00
51297;BME280;37380;45.186;9.792;2022-10-16T09:29:41;101801.34;;;21.35;100.00
51297;BME280;37380;45.186;9.792;2022-10-16T09:32:12;101806.09;;;21.73;100.00
51297;BME280;37380;45.186;9.792;2022-10-16T09:34:45;101805.53;;;22.33;100.00
51297;BME280;37380;45.186;9.792;2022-10-16T09:37:20;101807.50;;;23.05;97.98
51297;BME280;37380;45.186;9.792;2022-10-16T09:40:26;101793.31;;;23.14;99.04
51297;BME280;37380;45.186;9.792;2022-10-16T09:42:57;101798.59;;;23.75;94.29
51297;BME280;37380;45.186;9.792;2022-10-16T09:45:27;101791.50;;;23.30;95.13
51297;BME280;37380;45.186;9.792;2022-10-16T09:47:54;101804.81;;;23.79;96.69
51297;BME280;37380;45.186;9.792;2022-10-16T09:50:30;101796.84;;;23.40;92.27
51297;BME280;37380;45.186;9.792;2022-10-16T09:53:38;101798.63;;;23.34;92.20
51297;BME280;37380;45.186;9.792;2022-10-16T09:56:32;101793.22;;;22.63;99.17
51297;BME280;37380;45.186;9.792;2022-10-16T09:59:01;101800.41;;;23.22;94.96
51297;BME280;37380;45.186;9.792;2022-10-16T10:01:36;101797.66;;;22.70;96.60
51297;BME280;37380;45.186;9.792;2022-10-16T10:04:50;101795.94;;;23.03;95.03
51297;BME280;37380;45.186;9.792;2022-10-16T10:07:31;101795.00;;;23.88;91.64
51297;BME280;37380;45.186;9.792;2022-10-16T10:10:02;101796.84;;;23.17;94.07
51297;BME280;37380;45.186;9.792;2022-10-16T10:12:32;101795.94;;;23.18;92.60
51297;BME280;37380;45.186;9.792;2022-10-16T10:15:10;101795.94;;;23.57;92.14
51297;BME280;37380;45.186;9.792;2022-10-16T10:18:19;101801.31;;;23.24;93.49
51297;BME280;37380;45.186;9.792;2022-10-16T10:20:57;101795.91;;;23.67;91.54
51297;BME280;37380;45.186;9.792;2022-10-16T10:23:25;101790.56;;;23.86;96.10
51297;BME280;37380;45.186;9.792;2022-10-16T10:26:13;101793.06;;;24.27;90.43
51297;BME280;37380;45.186;9.792;2022-10-16T10:28:46;101790.09;;;24.81;85.60
51297;BME280;37380;45.186;9.792;2022-10-16T10:31:20;101795.38;;;24.93;86.56
51297;BME280;37380;45.186;9.792;2022-10-16T10:36:27;101798.38;;;24.44;86.80
51297;BME280;37380;45.186;9.792;2022-10-16T10:38:59;101802.53;;;24.91;85.40
51297;BME280;37380;45.186;9.792;2022-10-16T10:56:07;101782.50;;;25.41;85.00
51297;BME280;37380;45.186;9.792;2022-10-16T11:01:11;101781.66;;;25.38;82.61
51297;BME280;37380;45.186;9.792;2022-10-16T11:07:14;101783.44;;;25.39;83.06
51297;BME280;37380;45.186;9.792;2022-10-16T11:10:13;101779.19;;;25.12;82.89
51297;BME280;37380;45.186;9.792;2022-10-16T11:12:42;101771.22;;;25.05;87.30
51297;BME280;37380;45.186;9.792;2022-10-16T11:15:14;101779.19;;;25.12;84.23
51297;BME280;37380;45.186;9.792;2022-10-16T11:20:24;101777.34;;;25.23;82.66
51297;BME280;37380;45.186;9.792;2022-10-16T11:23:29;101777.50;;;25.00;83.70
51297;BME280;37380;45.186;9.792;2022-10-16T11:25:59;101780.38;;;24.72;85.48
51297;BME280;37380;45.186;9.792;2022-10-16T11:28:29;101781.13;;;24.91;87.11
51297;BME280;37380;45.186;9.792;2022-10-16T11:31:02;101775.03;;;24.72;86.42
51297;BME280;37380;45.186;9.792;2022-10-16T11:33:32;101773.94;;;24.98;87.10
51297;BME280;37380;45.186;9.792;2022-10-16T11:36:06;101776.53;;;25.07;84.77
51297;BME280;37380;45.186;9.792;2022-10-16T11:41:18;101780.03;;;25.23;83.23
51297;BME280;37380;45.186;9.792;2022-10-16T11:43:51;101781.69;;;25.35;82.25
51297;BME280;37380;45.186;9.792;2022-10-16T11:46:20;101770.25;;;25.17;83.02
51297;BME280;37380;45.186;9.792;2022-10-16T11:48:50;101765.69;;;25.27;83.49
51297;BME280;37380;45.186;9.792;2022-10-16T11:51:31;101758.84;;;24.94;86.42
51297;BME280;37380;45.186;9.792;2022-10-16T11:54:50;101758.47;;;24.00;86.02
51297;BME280;37380;45.186;9.792;2022-10-16T11:57:23;101762.06;;;24.00;88.13
51297;BME280;37380;45.186;9.792;2022-10-16T12:08:27;101753.84;;;24.37;86.96
51297;BME280;37380;45.186;9.792;2022-10-16T12:11:03;101753.81;;;24.52;85.27
51297;BME280;37380;45.186;9.792;2022-10-16T12:18:32;101759.22;;;24.32;84.49
51297;BME280;37380;45.186;9.792;2022-10-16T12:20:59;101759.22;;;24.28;84.60
51297;BME280;37380;45.186;9.792;2022-10-16T12:23:33;101755.72;;;24.18;87.01
51297;BME280;37380;45.186;9.792;2022-10-16T12:26:04;101754.88;;;24.10;87.75
51297;BME280;37380;45.186;9.792;2022-10-16T12:28:32;101747.66;;;24.26;87.67
51297;BME280;37380;45.186;9.792;2022-10-16T12:31:15;101758.38;;;24.21;86.53
51297;BME280;37380;45.186;9.792;2022-10-16T12:34:22;101754.81;;;24.22;87.23
51297;BME280;37380;45.186;9.792;2022-10-16T12:37:26;101750.28;;;24.38;84.29
51297;BME280;37380;45.186;9.792;2022-10-16T12:42:54;101751.16;;;24.37;84.18
51297;BME280;37380;45.186;9.792;2022-10-16T12:45:26;101745.75;;;24.55;85.25
51297;BME280;37380;45.186;9.792;2022-10-16T12:47:54;101748.34;;;24.68;84.01
51297;BME280;37380;45.186;9.792;2022-10-16T12:50:26;101751.91;;;24.65;83.75
51297;BME280;37380;45.186;9.792;2022-10-16T12:52:54;101751.22;;;24.28;81.63
51297;BME280;37380;45.186;9.792;2022-10-16T12:55:21;101749.19;;;24.74;87.23
51297;BME280;37380;45.186;9.792;2022-10-16T13:00:45;101743.91;;;24.65;86.77
51297;BME280;37380;45.186;9.792;2022-10-16T13:06:38;101749.78;;;25.12;79.83
51297;BME280;37380;45.186;9.792;2022-10-16T13:20:36;101759.13;;;24.51;83.90
51297;BME280;37380;45.186;9.792;2022-10-16T13:23:15;101749.25;;;24.63;83.02
51297;BME280;37380;45.186;9.792;2022-10-16T13:28:19;101754.69;;;24.53;76.19
51297;BME280;37380;45.186;9.792;2022-10-16T13:30:56;101749.53;;;24.14;80.03
51297;BME280;37380;45.186;9.792;2022-10-16T13:33:59;101755.78;;;24.00;79.43
51297;BME280;37380;45.186;9.792;2022-10-16T13:36:54;101754.03;;;24.03;83.65
51297;BME280;37380;45.186;9.792;2022-10-16T13:39:22;101750.44;;;24.09;80.02
51297;BME280;37380;45.186;9.792;2022-10-16T13:42:11;101753.03;;;24.20;79.42
51297;BME280;37380;45.186;9.792;2022-10-16T13:45:00;101746.81;;;24.24;75.98
51297;BME280;37380;45.186;9.792;2022-10-16T13:47:28;101750.44;;;24.07;79.03
51297;BME280;37380;45.186;9.792;2022-10-16T13:50:09;101745.97;;;24.09;78.88
51297;BME280;37380;45.186;9.792;2022-10-16T13:52:38;101742.38;;;24.13;78.63
51297;BME280;37380;45.186;9.792;2022-10-16T13:55:16;101747.78;;;24.00;77.89
51297;BME280;37380;45.186;9.792;2022-10-16T13:58:12;101742.44;;;24.04;79.56
51297;BME280;37380;45.186;9.792;2022-10-16T14:00:42;101746.06;;;23.94;82.28
51297;BME280;37380;45.186;9.792;2022-10-16T14:03:26;101743.38;;;23.92;82.06
51297;BME280;37380;45.186;9.792;2022-10-16T14:06:22;101751.44;;;23.76;83.00
51297;BME280;37380;45.186;9.792;2022-10-16T14:12:02;101739.88;;;23.70;81.77
51297;BME280;37380;45.186;9.792;2022-10-16T14:14:52;101743.47;;;23.49;86.32
51297;BME280;37380;45.186;9.792;2022-10-16T14:17:30;101738.16;;;23.46;84.12
51297;BME280;37380;45.186;9.792;2022-10-16T14:19:58;101742.63;;;23.40;86.07
51297;BME280;37380;45.186;9.792;2022-10-16T14:22:38;101736.41;;;23.35;86.05
51297;BME280;37380;45.186;9.792;2022-10-16T14:25:37;101744.41;;;23.32;83.29
51297;BME280;37380;45.186;9.792;2022-10-16T14:28:18;101748.84;;;23.23;88.06
51297;BME280;37380;45.186;9.792;2022-10-16T14:34:27;101740.84;;;23.17;85.46
51297;BME280;37380;45.186;9.792;2022-10-16T14:37:28;101743.53;;;23.17;84.85
51297;BME280;37380;45.186;9.792;2022-10-16T14:40:33;101748.88;;;23.16;85.93
51297;BME280;37380;45.186;9.792;2022-10-16T14:45:57;101757.78;;;23.01;85.19
51297;BME280;37380;45.186;9.792;2022-10-16T14:48:24;101753.31;;;23.00;85.80
51297;BME280;37380;45.186;9.792;2022-10-16T14:50:52;101760.41;;;22.95;85.50
51297;BME280;37380;45.186;9.792;2022-10-16T14:53:19;101758.66;;;22.95;87.06
51297;BME280;37380;45.186;9.792;2022-10-16T14:55:52;101756.84;;;22.97;87.89
51297;BME280;37380;45.186;9.792;2022-10-16T14:58:53;101760.38;;;22.89;87.89
51297;BME280;37380;45.186;9.792;2022-10-16T15:01:54;101764.81;;;22.85;87.25
51297;BME280;37380;45.186;9.792;2022-10-16T15:04:55;101760.38;;;22.82;87.58
51297;BME280;37380;45.186;9.792;2022-10-16T15:07:34;101766.59;;;22.81;87.29
51297;BME280;37380;45.186;9.792;2022-10-16T15:10:28;101769.25;;;22.80;87.33
51297;BME280;37380;45.186;9.792;2022-10-16T15:12:55;101774.59;;;22.78;87.59
51297;BME280;37380;45.186;9.792;2022-10-16T15:17:50;101779.91;;;22.75;90.10
51297;BME280;37380;45.186;9.792;2022-10-16T15:20:24;101779.00;;;22.72;90.15
51297;BME280;37380;45.186;9.792;2022-10-16T15:22:58;101777.25;;;22.69;92.19
51297;BME280;37380;45.186;9.792;2022-10-16T15:25:54;101783.44;;;22.62;91.13
51297;BME280;37380;45.186;9.792;2022-10-16T15:28:22;101779.91;;;22.63;91.84